createdAt,value
2022-11-29T00:01:21.613Z,8.90
2022-11-29T00:03:48.552Z,8.90
2022-11-29T00:06:19.402Z,8.90
2022-11-29T00:08:47.106Z,8.90
2022-11-29T00:11:35.761Z,8.90
2022-11-29T00:14:03.019Z,8.90
2022-11-29T00:16:30.159Z,8.90
2022-11-29T00:18:57.077Z,8.90
2022-11-29T00:21:25.266Z,8.90
2022-11-29T00:23:52.250Z,8.90
2022-11-29T00:26:19.556Z,8.90
2022-11-29T00:28:46.411Z,8.90
2022-11-29T00:31:15.359Z,8.90
2022-11-29T00:33:42.287Z,8.90
2022-11-29T00:36:09.237Z,8.90
2022-11-29T00:38:37.545Z,8.90
2022-11-29T00:41:05.405Z,8.90
2022-11-29T00:43:32.367Z,8.90
2022-11-29T00:45:59.272Z,8.90
2022-11-29T00:48:26.122Z,8.90
2022-11-29T00:50:52.972Z,8.90
2022-11-29T00:53:19.858Z,8.90
2022-11-29T00:55:50.123Z,8.90
2022-11-29T00:58:17.344Z,8.90
2022-11-29T01:00:44.454Z,8.90
2022-11-29T01:03:11.729Z,8.90
2022-11-29T01:05:38.565Z,8.90
2022-11-29T01:08:05.701Z,8.90
2022-11-29T01:10:32.678Z,8.90
2022-11-29T01:13:01.048Z,8.90
2022-11-29T01:15:28.289Z,8.90
2022-11-29T01:17:55.187Z,8.90
2022-11-29T01:20:22.143Z,8.90
2022-11-29T01:22:48.988Z,8.90
2022-11-29T01:25:16.191Z,9.00
2022-11-29T01:27:42.998Z,9.00
2022-11-29T01:30:12.175Z,9.00
2022-11-29T01:32:39.151Z,9.00
2022-11-29T01:35:07.049Z,9.00
2022-11-29T01:37:33.883Z,9.00
2022-11-29T01:40:00.775Z,9.00
2022-11-29T01:42:27.707Z,9.00
2022-11-29T01:45:07.981Z,8.90
2022-11-29T01:47:42.126Z,8.90
2022-11-29T01:50:10.766Z,8.90
2022-11-29T01:52:38.478Z,8.80
2022-11-29T01:55:07.440Z,8.80
2022-11-29T01:57:36.772Z,8.90
2022-11-29T02:00:08.698Z,8.80
2022-11-29T02:02:42.311Z,8.80
2022-11-29T02:05:10.184Z,8.80
2022-11-29T02:07:37.910Z,8.80
2022-11-29T02:10:06.961Z,8.80
2022-11-29T02:12:43.735Z,8.80
2022-11-29T02:15:28.361Z,8.80
2022-11-29T02:18:06.440Z,8.80
2022-11-29T02:21:11.029Z,8.80
2022-11-29T02:24:13.421Z,8.80
2022-11-29T02:27:17.150Z,8.80
2022-11-29T02:30:06.415Z,8.80
2022-11-29T02:33:23.766Z,8.80
2022-11-29T02:36:18.999Z,8.80
2022-11-29T02:39:07.612Z,8.80
2022-11-29T02:41:49.542Z,8.80
2022-11-29T02:44:52.068Z,8.80
2022-11-29T02:47:28.522Z,8.80
2022-11-29T02:50:17.261Z,8.80
2022-11-29T02:52:52.702Z,8.80
2022-11-29T02:55:34.441Z,8.80
2022-11-29T02:58:06.192Z,8.80
2022-11-29T03:00:36.193Z,8.80
2022-11-29T03:03:09.389Z,8.80
2022-11-29T03:05:44.777Z,8.80
2022-11-29T03:08:18.256Z,8.80
2022-11-29T03:10:56.107Z,8.80
2022-11-29T03:13:36.244Z,8.80
2022-11-29T03:16:12.653Z,8.80
2022-11-29T03:18:55.894Z,8.80
2022-11-29T03:21:40.676Z,8.80
2022-11-29T03:24:13.712Z,8.80
2022-11-29T03:26:45.627Z,8.80
2022-11-29T03:29:22.556Z,8.80
2022-11-29T03:31:58.084Z,8.80
2022-11-29T03:34:36.088Z,8.80
2022-11-29T03:37:12.190Z,8.80
2022-11-29T03:39:46.468Z,8.80
2022-11-29T03:42:19.779Z,8.80
2022-11-29T03:44:53.313Z,8.80
2022-11-29T03:47:26.142Z,8.80
2022-11-29T03:49:56.677Z,8.80
2022-11-29T03:52:32.693Z,8.80
2022-11-29T03:55:11.961Z,8.80
2022-11-29T03:57:49.541Z,8.80
2022-11-29T04:00:18.306Z,8.80
2022-11-29T04:03:17.502Z,8.80
2022-11-29T04:05:57.542Z,8.90
2022-11-29T04:09:21.367Z,8.90
2022-11-29T04:12:37.863Z,8.90
2022-11-29T04:15:39.586Z,8.90
2022-11-29T04:18:37.438Z,8.90
2022-11-29T04:21:22.906Z,8.90
2022-11-29T04:24:35.715Z,8.90
2022-11-29T04:27:36.466Z,8.90
2022-11-29T04:30:13.708Z,8.90
2022-11-29T04:33:19.887Z,8.90
2022-11-29T04:36:29.581Z,8.80
2022-11-29T04:39:11.956Z,8.90
2022-11-29T04:41:52.875Z,8.80
2022-11-29T04:44:40.602Z,8.80
2022-11-29T04:47:37.738Z,8.80
2022-11-29T04:50:18.961Z,8.80
2022-11-29T04:53:12.108Z,8.80
2022-11-29T04:55:45.739Z,8.80
2022-11-29T04:58:20.828Z,8.80
2022-11-29T05:00:57.134Z,8.80
2022-11-29T05:03:38.830Z,8.80
2022-11-29T05:06:17.652Z,8.80
2022-11-29T05:08:54.639Z,8.80
2022-11-29T05:11:29.480Z,8.80
2022-11-29T05:14:03.734Z,8.80
2022-11-29T05:16:54.061Z,8.90
2022-11-29T05:19:36.406Z,8.90
2022-11-29T05:22:21.006Z,8.90
2022-11-29T05:24:56.762Z,8.90
2022-11-29T05:27:33.075Z,8.90
2022-11-29T05:30:04.491Z,8.90
2022-11-29T05:32:38.353Z,8.90
2022-11-29T05:35:37.613Z,8.90
2022-11-29T05:38:15.118Z,8.90
2022-11-29T05:40:53.863Z,8.90
2022-11-29T05:43:45.428Z,8.90
2022-11-29T05:46:19.805Z,8.90
2022-11-29T05:48:56.735Z,8.90
2022-11-29T05:51:33.813Z,8.90
2022-11-29T05:54:08.153Z,8.90
2022-11-29T05:56:46.418Z,8.90
2022-11-29T05:59:17.773Z,8.90
2022-11-29T06:01:52.212Z,8.90
2022-11-29T06:04:28.660Z,8.90
2022-11-29T06:07:03.007Z,8.90
2022-11-29T06:09:34.049Z,8.90
2022-11-29T06:12:05.327Z,8.90
2022-11-29T06:14:48.263Z,8.90
2022-11-29T06:17:44.759Z,8.90
2022-11-29T06:20:33.240Z,8.90
2022-11-29T06:23:28.891Z,8.90
2022-11-29T06:26:10.667Z,8.90
2022-11-29T06:28:48.844Z,8.90
2022-11-29T06:31:20.334Z,8.90
2022-11-29T06:33:54.586Z,8.90
2022-11-29T06:36:27.924Z,8.90
2022-11-29T06:38:55.106Z,8.90
2022-11-29T06:41:24.175Z,8.90
2022-11-29T06:43:51.724Z,8.90
2022-11-29T06:46:26.777Z,8.90
2022-11-29T06:49:02.365Z,8.90
2022-11-29T06:51:39.098Z,8.90
2022-11-29T06:54:18.838Z,8.90
2022-11-29T06:56:54.937Z,8.90
2022-11-29T06:59:36.870Z,8.90
2022-11-29T07:02:19.595Z,8.80
2022-11-29T07:05:02.803Z,8.80
2022-11-29T07:07:34.092Z,8.80
2022-11-29T07:10:02.935Z,8.90
2022-11-29T07:12:30.360Z,8.90
2022-11-29T07:14:57.917Z,8.90
2022-11-29T07:17:30.908Z,8.90
2022-11-29T07:20:05.274Z,8.90
2022-11-29T07:22:48.359Z,8.90
2022-11-29T07:25:30.133Z,8.90
2022-11-29T07:28:08.778Z,8.90
2022-11-29T07:30:45.426Z,9.00
2022-11-29T07:33:20.989Z,9.00
2022-11-29T07:35:55.167Z,9.00
2022-11-29T07:38:28.941Z,9.00
2022-11-29T07:41:00.591Z,9.10
2022-11-29T07:43:40.772Z,9.00
2022-11-29T07:46:07.663Z,9.00
2022-11-29T07:48:34.766Z,9.00
2022-11-29T07:51:02.313Z,9.00
2022-11-29T07:53:30.722Z,9.00
2022-11-29T07:55:57.859Z,9.00
2022-11-29T07:58:25.034Z,9.00
2022-11-29T08:00:52.046Z,9.00
2022-11-29T08:03:18.988Z,9.10
2022-11-29T08:05:47.361Z,9.10
2022-11-29T08:08:15.114Z,9.10
2022-11-29T08:10:43.949Z,9.10
2022-11-29T08:13:10.988Z,9.10
2022-11-29T08:15:43.209Z,9.10
2022-11-29T08:18:10.368Z,9.20
2022-11-29T08:20:37.471Z,9.20
2022-11-29T08:23:04.575Z,9.30
2022-11-29T08:25:31.497Z,9.40
2022-11-29T08:28:01.650Z,9.50
2022-11-29T08:30:28.604Z,9.60
2022-11-29T08:32:55.621Z,9.70
2022-11-29T08:35:24.504Z,9.70
2022-11-29T08:37:51.678Z,9.70
2022-11-29T08:40:18.912Z,9.80
2022-11-29T08:42:45.929Z,9.80
2022-11-29T08:45:14.353Z,9.90
2022-11-29T08:47:42.355Z,9.90
2022-11-29T08:50:14.245Z,10.00
2022-11-29T08:53:01.865Z,10.00
2022-11-29T08:55:32.700Z,10.10
2022-11-29T08:58:03.004Z,10.10
2022-11-29T09:00:32.145Z,10.10
2022-11-29T09:03:19.269Z,10.10
2022-11-29T09:05:46.295Z,10.00
2022-11-29T09:08:13.257Z,10.00
2022-11-29T09:10:40.979Z,9.90
2022-11-29T09:13:08.576Z,9.90
2022-11-29T09:15:37.307Z,9.90
2022-11-29T09:18:05.801Z,9.80
2022-11-29T09:20:33.680Z,9.80
2022-11-29T09:23:01.615Z,9.80
2022-11-29T09:25:28.724Z,9.80
2022-11-29T09:27:58.747Z,9.80
2022-11-29T09:30:26.443Z,9.70
2022-11-29T09:32:54.942Z,9.70
2022-11-29T09:35:22.079Z,9.70
2022-11-29T09:37:49.029Z,9.80
2022-11-29T09:40:19.410Z,9.70
2022-11-29T09:42:56.253Z,9.70
2022-11-29T09:45:30.934Z,9.70
2022-11-29T09:48:19.756Z,9.70
2022-11-29T09:50:48.361Z,9.70
2022-11-29T09:53:27.656Z,9.70
2022-11-29T09:56:05.370Z,9.70
2022-11-29T09:58:40.608Z,9.70
2022-11-29T10:01:13.132Z,9.70
2022-11-29T10:03:44.821Z,9.70
2022-11-29T10:06:23.083Z,9.80
2022-11-29T10:08:56.054Z,9.80
2022-11-29T10:11:28.317Z,9.80
2022-11-29T10:14:00.289Z,9.80
2022-11-29T10:16:36.471Z,9.90
2022-11-29T10:19:15.598Z,9.80
2022-11-29T10:21:47.702Z,9.90
2022-11-29T10:24:18.618Z,9.80
2022-11-29T10:26:45.677Z,9.80
2022-11-29T10:29:15.395Z,9.90
2022-11-29T10:31:44.599Z,9.80
2022-11-29T10:34:16.190Z,9.80
2022-11-29T10:36:46.047Z,9.90
2022-11-29T10:39:19.901Z,9.90
2022-11-29T10:41:48.701Z,9.90
2022-11-29T10:44:15.732Z,9.90
2022-11-29T10:46:42.943Z,9.90
2022-11-29T10:49:15.710Z,9.90
2022-11-29T10:51:43.071Z,9.90
2022-11-29T10:54:25.374Z,9.90
2022-11-29T10:56:52.435Z,9.90
2022-11-29T10:59:21.536Z,9.90
2022-11-29T11:01:49.088Z,9.90
2022-11-29T11:04:26.821Z,9.90
2022-11-29T11:06:56.649Z,10.00
2022-11-29T11:09:31.191Z,10.00
2022-11-29T11:12:00.173Z,10.00
2022-11-29T11:14:29.049Z,10.00
2022-11-29T11:17:13.668Z,10.00
2022-11-29T11:19:42.091Z,10.00
2022-11-29T11:22:20.732Z,10.00
2022-11-29T11:24:55.745Z,10.00
2022-11-29T11:27:30.015Z,10.10
2022-11-29T11:29:57.001Z,10.10
2022-11-29T11:32:23.940Z,10.10
2022-11-29T11:34:54.219Z,10.10
2022-11-29T11:37:24.363Z,10.10
2022-11-29T11:39:53.541Z,10.10
2022-11-29T11:42:39.598Z,10.10
2022-11-29T11:45:32.239Z,10.10
2022-11-29T11:48:02.062Z,10.20
2022-11-29T11:50:33.934Z,10.20
2022-11-29T11:53:04.938Z,10.20
2022-11-29T11:55:35.852Z,10.20
2022-11-29T11:58:10.697Z,10.20
2022-11-29T12:01:03.013Z,10.20
2022-11-29T12:03:37.751Z,10.20
2022-11-29T12:06:34.136Z,10.20
2022-11-29T12:09:06.446Z,10.20
2022-11-29T12:11:41.080Z,10.20
2022-11-29T12:14:10.940Z,10.20
2022-11-29T12:16:40.676Z,10.20
2022-11-29T12:19:16.731Z,10.10
2022-11-29T12:21:52.511Z,10.20
2022-11-29T12:24:26.529Z,10.10
2022-11-29T12:26:57.888Z,10.20
2022-11-29T12:29:28.588Z,10.20
2022-11-29T12:32:05.332Z,10.20
2022-11-29T12:34:44.422Z,10.20
2022-11-29T12:37:20.762Z,10.30
2022-11-29T12:39:58.627Z,10.20
2022-11-29T12:42:36.285Z,10.30
2022-11-29T12:45:20.422Z,10.30
2022-11-29T12:47:57.306Z,10.30
2022-11-29T12:50:39.645Z,10.30
2022-11-29T12:53:26.744Z,10.40
2022-11-29T12:56:05.651Z,10.40
2022-11-29T12:58:46.054Z,10.40
2022-11-29T13:01:24.485Z,10.50
2022-11-29T13:03:56.974Z,10.50
2022-11-29T13:06:30.408Z,10.70
2022-11-29T13:09:29.481Z,10.70
2022-11-29T13:12:02.306Z,10.70
2022-11-29T13:14:42.563Z,10.70
2022-11-29T13:17:31.969Z,10.70
2022-11-29T13:20:04.167Z,10.70
2022-11-29T13:22:39.936Z,10.60
2022-11-29T13:25:15.112Z,10.60
2022-11-29T13:27:47.127Z,10.60
2022-11-29T13:30:15.055Z,10.60
2022-11-29T13:32:47.627Z,10.50
2022-11-29T13:35:21.461Z,10.50
2022-11-29T13:37:55.339Z,10.50
2022-11-29T13:40:37.181Z,10.50
2022-11-29T13:43:15.215Z,10.50
2022-11-29T13:45:47.476Z,10.50
2022-11-29T13:48:37.493Z,10.50
2022-11-29T13:51:30.698Z,10.50
2022-11-29T13:54:01.054Z,10.50
2022-11-29T13:56:36.102Z,10.50
2022-11-29T13:59:07.609Z,10.50
2022-11-29T14:01:48.666Z,10.60
2022-11-29T14:04:25.560Z,10.60
2022-11-29T14:07:03.109Z,10.50
2022-11-29T14:09:41.255Z,10.50
2022-11-29T14:12:27.778Z,10.50
2022-11-29T14:14:58.418Z,10.50
2022-11-29T14:17:47.586Z,10.40
2022-11-29T14:20:51.040Z,10.40
2022-11-29T14:23:32.407Z,10.40
2022-11-29T14:26:28.801Z,10.40
2022-11-29T14:28:58.781Z,10.40
2022-11-29T14:31:48.934Z,10.40
2022-11-29T14:34:24.735Z,10.40
2022-11-29T14:36:59.151Z,10.40
2022-11-29T14:39:41.137Z,10.40
2022-11-29T14:42:16.817Z,10.40
2022-11-29T14:44:48.337Z,10.40
2022-11-29T14:47:24.085Z,10.50
2022-11-29T14:49:52.941Z,10.40
2022-11-29T14:52:26.304Z,10.40
2022-11-29T14:54:57.472Z,10.40
2022-11-29T14:58:10.579Z,10.40
2022-11-29T15:01:09.552Z,10.40
2022-11-29T15:03:42.637Z,10.40
2022-11-29T15:06:17.102Z,10.40
2022-11-29T15:08:57.644Z,10.40
2022-11-29T15:11:35.321Z,10.40
2022-11-29T15:14:05.555Z,10.40
2022-11-29T15:16:45.814Z,10.40
2022-11-29T15:19:42.384Z,10.30
2022-11-29T15:22:15.774Z,10.30
2022-11-29T15:24:53.975Z,10.30
2022-11-29T15:27:21.842Z,10.30
2022-11-29T15:29:49.596Z,10.30
2022-11-29T15:32:23.442Z,10.20
2022-11-29T15:34:53.291Z,10.20
2022-11-29T15:37:40.729Z,10.20
2022-11-29T15:40:12.529Z,10.20
2022-11-29T15:42:41.814Z,10.20
2022-11-29T15:45:26.505Z,10.20
2022-11-29T15:47:55.318Z,10.20
2022-11-29T15:50:27.284Z,10.20
2022-11-29T15:52:59.232Z,10.20
2022-11-29T15:55:27.209Z,10.20
2022-11-29T15:57:57.568Z,10.20
2022-11-29T16:00:27.324Z,10.20
2022-11-29T16:02:58.089Z,10.10
2022-11-29T16:05:27.836Z,10.10
2022-11-29T16:07:57.275Z,10.10
2022-11-29T16:10:37.186Z,10.10
2022-11-29T16:13:06.208Z,10.10
2022-11-29T16:15:35.537Z,10.10
2022-11-29T16:18:05.195Z,10.10
2022-11-29T16:20:32.362Z,10.10
2022-11-29T16:23:11.552Z,10.00
2022-11-29T16:25:53.031Z,10.10
2022-11-29T16:28:20.240Z,10.00
2022-11-29T16:30:47.146Z,10.00
2022-11-29T16:33:21.267Z,10.00
2022-11-29T16:35:48.415Z,10.00
2022-11-29T16:38:20.740Z,10.00
2022-11-29T16:41:02.655Z,10.00
2022-11-29T16:43:53.318Z,10.00
2022-11-29T16:46:30.287Z,10.00
2022-11-29T16:49:03.656Z,10.00
2022-11-29T16:51:37.755Z,10.00
2022-11-29T16:54:23.028Z,10.00
2022-11-29T16:56:51.980Z,10.00
2022-11-29T16:59:26.488Z,10.00
2022-11-29T17:01:55.599Z,10.00
2022-11-29T17:04:25.017Z,10.00
2022-11-29T17:06:53.268Z,9.90
2022-11-29T17:09:24.210Z,9.90
2022-11-29T17:11:51.691Z,9.90
2022-11-29T17:14:18.674Z,9.90
2022-11-29T17:16:49.197Z,9.90
2022-11-29T17:19:16.632Z,9.90
2022-11-29T17:21:45.538Z,9.90
2022-11-29T17:24:15.641Z,9.80
2022-11-29T17:26:43.774Z,9.70
2022-11-29T17:29:12.002Z,9.70
2022-11-29T17:31:39.487Z,9.70
2022-11-29T17:34:06.668Z,9.70
2022-11-29T17:36:33.819Z,9.70
2022-11-29T17:39:03.559Z,9.60
2022-11-29T17:41:30.917Z,9.60
2022-11-29T17:43:58.256Z,9.60
2022-11-29T17:46:26.409Z,9.60
2022-11-29T17:48:53.773Z,9.60
2022-11-29T17:51:50.719Z,9.60
2022-11-29T17:54:10.652Z,9.60
2022-11-29T17:56:37.930Z,9.60
2022-11-29T17:59:05.275Z,9.60
2022-11-29T18:01:34.664Z,9.60
2022-11-29T18:04:03.801Z,9.60
2022-11-29T18:06:35.552Z,9.50
2022-11-29T18:09:06.089Z,9.40
2022-11-29T18:11:44.956Z,9.40
2022-11-29T18:14:15.450Z,9.40
2022-11-29T18:16:42.937Z,9.40
2022-11-29T18:19:12.677Z,9.40
2022-11-29T18:21:39.916Z,9.40
2022-11-29T18:24:07.830Z,9.40
2022-11-29T18:26:37.357Z,9.40
2022-11-29T18:29:04.882Z,9.40
2022-11-29T18:31:34.238Z,9.40
2022-11-29T18:34:02.634Z,9.50
2022-11-29T18:36:32.006Z,9.50
2022-11-29T18:39:00.568Z,9.50
2022-11-29T18:41:29.327Z,9.50
2022-11-29T18:43:59.438Z,9.50
2022-11-29T18:46:32.182Z,9.50
2022-11-29T18:49:00.735Z,9.50
2022-11-29T18:51:28.863Z,9.50
2022-11-29T18:53:56.055Z,9.50
2022-11-29T18:56:25.097Z,9.50
2022-11-29T18:58:58.150Z,9.50
2022-11-29T19:01:29.222Z,9.50
2022-11-29T19:03:58.323Z,9.40
2022-11-29T19:06:26.563Z,9.50
2022-11-29T19:08:54.623Z,9.50
2022-11-29T19:11:23.282Z,9.50
2022-11-29T19:13:55.101Z,9.50
2022-11-29T19:16:23.720Z,9.50
2022-11-29T19:18:53.945Z,9.50
2022-11-29T19:21:22.499Z,9.50
2022-11-29T19:23:52.629Z,9.50
2022-11-29T19:26:20.336Z,9.50
2022-11-29T19:28:47.798Z,9.50
2022-11-29T19:31:17.142Z,9.50
2022-11-29T19:33:45.452Z,9.60
2022-11-29T19:36:15.674Z,9.50
2022-11-29T19:38:43.502Z,9.50
2022-11-29T19:41:11.778Z,9.60
2022-11-29T19:43:38.915Z,9.50
2022-11-29T19:46:09.384Z,9.60
2022-11-29T19:48:37.187Z,9.60
2022-11-29T19:51:04.979Z,9.60
2022-11-29T19:53:33.979Z,9.60
2022-11-29T19:56:04.865Z,9.60
2022-11-29T19:58:32.167Z,9.60
2022-11-29T20:01:05.000Z,9.50
2022-11-29T20:03:31.890Z,9.50
2022-11-29T20:05:58.953Z,9.50
2022-11-29T20:08:25.861Z,9.50
2022-11-29T20:10:54.520Z,9.70
2022-11-29T20:13:21.975Z,9.50
2022-11-29T20:15:49.357Z,9.50
2022-11-29T20:18:16.520Z,9.50
2022-11-29T20:20:43.554Z,9.50
2022-11-29T20:23:10.525Z,9.60
2022-11-29T20:25:37.737Z,9.60
2022-11-29T20:28:06.806Z,9.60
2022-11-29T20:30:35.017Z,9.60
2022-11-29T20:33:02.170Z,9.60
2022-11-29T20:35:29.865Z,9.70
2022-11-29T20:38:11.832Z,9.60
2022-11-29T20:40:59.526Z,9.60
2022-11-29T20:43:38.635Z,9.60
2022-11-29T20:46:06.184Z,9.60
2022-11-29T20:48:33.547Z,9.60
2022-11-29T20:51:02.325Z,9.60
2022-11-29T20:53:34.615Z,9.60
2022-11-29T20:56:02.346Z,9.60
2022-11-29T20:58:30.958Z,9.50
2022-11-29T21:00:58.176Z,9.50
2022-11-29T21:03:26.024Z,9.50
2022-11-29T21:05:54.530Z,9.50
2022-11-29T21:08:22.356Z,9.50
2022-11-29T21:10:49.637Z,9.50
2022-11-29T21:13:18.450Z,9.50
2022-11-29T21:15:47.801Z,9.50
2022-11-29T21:18:21.797Z,9.50
2022-11-29T21:20:56.830Z,9.50
2022-11-29T21:23:33.671Z,9.50
2022-11-29T21:26:07.191Z,9.50
2022-11-29T21:28:39.182Z,9.50
2022-11-29T21:31:11.524Z,9.50
2022-11-29T21:33:39.059Z,9.50
2022-11-29T21:36:06.681Z,9.50
2022-11-29T21:38:33.856Z,9.50
2022-11-29T21:41:00.813Z,9.50
2022-11-29T21:43:57.848Z,9.50
2022-11-29T21:46:16.959Z,9.50
2022-11-29T21:48:44.373Z,9.40
2022-11-29T21:51:11.768Z,9.50
2022-11-29T21:53:39.585Z,9.50
2022-11-29T21:56:08.936Z,9.50
2022-11-29T21:58:39.045Z,9.50
2022-11-29T22:01:07.966Z,9.40
2022-11-29T22:03:36.507Z,9.50
2022-11-29T22:06:05.078Z,9.50
2022-11-29T22:08:34.703Z,9.40
2022-11-29T22:11:03.490Z,9.40
2022-11-29T22:13:30.587Z,9.40
2022-11-29T22:16:08.827Z,9.40
2022-11-29T22:18:37.198Z,9.40
2022-11-29T22:21:06.938Z,9.40
2022-11-29T22:23:34.408Z,9.30
2022-11-29T22:26:05.570Z,9.30
2022-11-29T22:28:32.561Z,9.30
2022-11-29T22:31:04.092Z,9.30
2022-11-29T22:33:31.200Z,9.20
2022-11-29T22:36:04.133Z,9.20
2022-11-29T22:38:31.241Z,9.20
2022-11-29T22:41:01.462Z,9.20
2022-11-29T22:43:29.302Z,9.20
2022-11-29T22:46:02.800Z,9.20
2022-11-29T22:48:32.987Z,9.20
2022-11-29T22:51:05.652Z,9.10
2022-11-29T22:53:32.701Z,9.10
2022-11-29T22:56:00.033Z,9.10
2022-11-29T22:58:27.215Z,9.10
2022-11-29T23:01:00.509Z,9.00
2022-11-29T23:03:27.444Z,9.00
2022-11-29T23:05:54.342Z,9.00
2022-11-29T23:08:25.224Z,8.90
2022-11-29T23:10:56.868Z,8.90
2022-11-29T23:13:23.763Z,8.80
2022-11-29T23:15:52.182Z,8.80
2022-11-29T23:18:19.404Z,8.90
2022-11-29T23:20:46.316Z,8.90
2022-11-29T23:23:13.432Z,8.90
2022-11-29T23:25:49.124Z,8.90
2022-11-29T23:28:16.261Z,9.00
2022-11-29T23:30:43.219Z,9.00
2022-11-29T23:33:10.196Z,9.00
2022-11-29T23:35:37.247Z,9.00
2022-11-29T23:38:04.735Z,9.00
2022-11-29T23:40:31.757Z,9.00
2022-11-29T23:43:00.073Z,9.00
2022-11-29T23:45:26.941Z,9.00
2022-11-29T23:47:54.018Z,9.00
2022-11-29T23:50:20.834Z,9.00
2022-11-29T23:52:53.479Z,9.00
2022-11-29T23:55:20.592Z,9.00
2022-11-29T23:57:47.614Z,9.00
